Brusly, LA (70719)

11:42 PM CST on December 26, 2014 (GMT -0600)
Lynndale Sub-Division | Change Station
CLOSE
Current Station
Personal Weather Station
Location: Port Allen, LA
Elevation: 30 ft
Nearby Weather Stations
Active Advisory: Areal Flood Watch

Elev 30 ft 30.41 °N, 91.23 °W | Updated 59 seconds ago

Rain
Rain
58.8 °F
Feels Like 58.8 °F
N
0.0
Wind Variable Wind from East
Gusts 2.0 mph

Today
High -- | Low -- °F
--% Chance of Precip.
Yesterday
High -- | Low -- °F
Precip. -- in
6:59 AM 5:11 PM
Waxing Crescent, 33% visible
Pressure 30.14 in
Visibility 4.0 miles
Clouds Few 700 ft
Mostly Cloudy 2100 ft
Overcast 5000 ft
Dew Point 57 °F
Humidity 95%
Rainfall 0.00 in
Snow Depth Not available.
UV 0 out of 12
Pollen 4.20 out of 12
Air Quality Not available.
Flu Activity Not available.
SPECI KBTR 270507Z 10008KT 4SM -RA BR FEW007 BKN021 OVC050 15/14 A3014 RMK AO2 P0001 T01500139

More Conditions Fewer Conditions

Pressure 30.14 in
Visibility 4.0 miles
Clouds Few 700 ft
Mostly Cloudy 2100 ft
Overcast 5000 ft
Dew Point 57 °F
Humidity 95%
Rainfall 0.00 in
Snow Depth Not available.
UV 0 out of 12
Pollen 4.20 out of 12
Air Quality Not available.
Flu Activity Not available.
SPECI KBTR 270507Z 10008KT 4SM -RA BR FEW007 BKN021 OVC050 15/14 A3014 RMK AO2 P0001 T01500139

More Conditions Fewer Conditions

10-Day Weather Forecast

Almanac

Astronomy

Dec. 26, 2014 Rise Set
Actual Time
Civil Twilight
Nautical Twilight
Astronomical Twilight
Moon
Length of Visible Light
Length of Day
Tomorrow will be .
, % of the Moon is Illuminated

Today's Extremes

State Highs State Lows

Community

WunderPhotos

Upload Photos

1,780,850 photos uploaded!

WunderBlogs® & News

Nearby

Air Quality

  Air Quality AQ Index Pollutant
Not available.

Snow Depth

Station Depth Elevation

Earthquake Activity

City Distance Mag. Time & Date
Minimum magnitude displayed is 2.5.

Coastal Water Temperatures

Place Temperature

Nearby Weather Stations